createdAt,value
2022-10-17T00:00:33.672Z,97703.84
2022-10-17T00:03:36.552Z,97709.72
2022-10-17T00:06:38.083Z,97703.31
2022-10-17T00:09:43.725Z,97704.41
2022-10-17T00:12:45.173Z,97703.47
2022-10-17T00:15:46.607Z,97707.50
2022-10-17T00:18:48.111Z,97714.38
2022-10-17T00:21:49.799Z,97704.94
2022-10-17T00:24:51.349Z,97707.75
2022-10-17T00:27:52.817Z,97710.63
2022-10-17T00:30:59.912Z,97723.44
2022-10-17T00:34:01.556Z,97721.47
2022-10-17T00:37:03.485Z,97715.69
2022-10-17T00:40:06.431Z,97716.91
2022-10-17T00:43:18.137Z,97717.06
2022-10-17T00:46:21.395Z,97714.25
2022-10-17T00:49:26.125Z,97719.38
2022-10-17T00:52:30.202Z,97719.72
2022-10-17T00:55:37.153Z,97723.91
2022-10-17T00:58:38.783Z,97726.47
2022-10-17T01:01:42.953Z,97732.59
2022-10-17T01:04:47.577Z,97732.59
2022-10-17T01:07:52.436Z,97731.75
2022-10-17T01:11:18.660Z,97734.78
2022-10-17T01:14:41.612Z,97739.09
2022-10-17T01:18:08.528Z,97740.16
2022-10-17T01:21:30.494Z,97732.75
2022-10-17T01:24:50.989Z,97741.34
2022-10-17T01:28:09.362Z,97746.00
2022-10-17T01:31:13.921Z,97734.28
2022-10-17T01:34:22.424Z,97731.84
2022-10-17T01:37:31.907Z,97742.28
2022-10-17T01:40:59.133Z,97741.97
2022-10-17T01:44:38.132Z,97741.81
2022-10-17T01:47:41.929Z,97733.69
2022-10-17T01:50:54.368Z,97738.50
2022-10-17T01:54:21.492Z,97743.31
2022-10-17T01:57:29.442Z,97735.22
2022-10-17T02:00:32.943Z,97740.03
2022-10-17T02:03:35.558Z,97731.09
2022-10-17T02:06:40.374Z,97720.31
2022-10-17T02:09:45.893Z,97719.84
2022-10-17T02:13:05.279Z,97727.81
2022-10-17T02:16:28.845Z,97723.66
2022-10-17T02:19:36.747Z,97732.81
2022-10-17T02:22:47.423Z,97728.50
2022-10-17T02:25:56.289Z,97729.38
2022-10-17T02:29:09.067Z,97721.91
2022-10-17T02:32:54.900Z,97718.25
2022-10-17T02:36:03.060Z,97717.94
2022-10-17T02:39:08.749Z,97721.59
2022-10-17T02:42:13.048Z,97722.28
2022-10-17T02:45:15.771Z,97724.28
2022-10-17T02:48:38.743Z,97720.19
2022-10-17T02:52:12.776Z,97717.69
2022-10-17T02:55:20.403Z,97716.84
2022-10-17T02:58:31.977Z,97715.88
2022-10-17T03:01:36.047Z,97713.38
2022-10-17T03:04:42.987Z,97714.56
2022-10-17T03:07:44.686Z,97713.94
2022-10-17T03:10:46.413Z,97724.03
2022-10-17T03:13:48.229Z,97726.03
2022-10-17T03:16:51.491Z,97719.25
2022-10-17T03:19:53.360Z,97729.72
2022-10-17T03:22:54.870Z,97735.38
2022-10-17T03:25:56.730Z,97735.19
2022-10-17T03:28:58.340Z,97735.69
2022-10-17T03:32:01.117Z,97730.22
2022-10-17T03:35:02.747Z,97737.31
2022-10-17T03:38:04.569Z,97747.56
2022-10-17T03:41:06.792Z,97745.09
2022-10-17T03:44:08.307Z,97747.09
2022-10-17T03:47:11.927Z,97750.06
2022-10-17T03:50:15.863Z,97754.56
2022-10-17T03:53:18.605Z,97749.75
2022-10-17T03:56:22.967Z,97752.13
2022-10-17T03:59:53.835Z,97756.09
2022-10-17T04:02:58.045Z,97759.75
2022-10-17T04:06:05.043Z,97755.28
2022-10-17T04:09:09.956Z,97747.50
2022-10-17T04:12:31.925Z,97750.31
2022-10-17T04:15:36.287Z,97753.63
2022-10-17T04:18:38.191Z,97758.09
2022-10-17T04:21:39.692Z,97751.47
2022-10-17T04:24:42.790Z,97766.84
2022-10-17T04:28:00.521Z,97758.88
2022-10-17T04:31:07.130Z,97762.03
2022-10-17T04:34:17.133Z,97761.53
2022-10-17T04:37:18.899Z,97766.50
2022-10-17T04:40:21.781Z,97768.13
2022-10-17T04:43:25.908Z,97770.19
2022-10-17T04:46:27.744Z,97775.81
2022-10-17T04:49:29.285Z,97780.44
2022-10-17T04:52:39.124Z,97770.72
2022-10-17T04:55:42.366Z,97770.72
2022-10-17T04:58:45.506Z,97764.75
2022-10-17T05:01:48.992Z,97770.56
2022-10-17T05:04:50.635Z,97776.00
2022-10-17T05:07:52.336Z,97773.19
2022-10-17T05:10:57.129Z,97781.81
2022-10-17T05:14:01.049Z,97783.63
2022-10-17T05:17:02.725Z,97790.91
2022-10-17T05:20:05.459Z,97794.72
2022-10-17T05:23:08.342Z,97791.09
2022-10-17T05:26:14.956Z,97795.56
2022-10-17T05:29:16.569Z,97789.91
2022-10-17T05:32:23.004Z,97797.84
2022-10-17T05:35:24.831Z,97796.22
2022-10-17T05:38:28.113Z,97795.69
2022-10-17T05:41:29.915Z,97800.50
2022-10-17T05:44:31.424Z,97807.44
2022-10-17T05:47:34.913Z,97803.81
2022-10-17T05:50:36.792Z,97808.59
2022-10-17T05:53:50.780Z,97810.28
2022-10-17T05:56:58.184Z,97814.06
2022-10-17T06:00:05.430Z,97809.09
2022-10-17T06:03:15.615Z,97829.09
2022-10-17T06:06:19.315Z,97831.25
2022-10-17T06:09:23.069Z,97829.94
2022-10-17T06:12:27.389Z,97835.38
2022-10-17T06:15:29.454Z,97836.84
2022-10-17T06:18:36.584Z,97832.03
2022-10-17T06:21:38.894Z,97844.59
2022-10-17T06:25:01.931Z,97854.84
2022-10-17T06:28:04.753Z,97853.19
2022-10-17T06:31:08.552Z,97858.44
2022-10-17T06:34:10.976Z,97861.06
2022-10-17T06:37:14.062Z,97864.66
2022-10-17T06:40:17.204Z,97861.47
2022-10-17T06:43:21.397Z,97872.38
2022-10-17T06:46:53.315Z,97875.75
2022-10-17T06:49:55.936Z,97885.97
2022-10-17T06:53:06.260Z,97882.91
2022-10-17T06:56:22.864Z,97879.97
2022-10-17T06:59:41.882Z,97884.50
2022-10-17T07:02:46.361Z,97884.72
2022-10-17T07:05:52.248Z,97892.47
2022-10-17T07:08:55.647Z,97892.03
2022-10-17T07:11:57.593Z,97904.78
2022-10-17T07:14:59.107Z,97887.72
2022-10-17T07:18:00.583Z,97887.06
2022-10-17T07:21:03.957Z,97893.13
2022-10-17T07:24:07.451Z,97904.94
2022-10-17T07:27:09.273Z,97901.06
2022-10-17T07:30:11.317Z,97899.66
2022-10-17T07:33:26.424Z,97899.25
2022-10-17T07:36:28.039Z,97907.81
2022-10-17T07:39:30.897Z,97908.19
2022-10-17T07:42:36.111Z,97911.44
2022-10-17T07:45:37.972Z,97913.03
2022-10-17T07:48:40.160Z,97916.28
2022-10-17T07:51:42.988Z,97916.19
2022-10-17T07:54:52.577Z,97914.88
2022-10-17T07:57:57.092Z,97920.75
2022-10-17T08:01:09.427Z,97905.81
2022-10-17T08:04:13.837Z,97915.13
2022-10-17T08:07:22.987Z,97914.38
2022-10-17T08:10:29.718Z,97933.09
2022-10-17T08:13:38.678Z,97929.81
2022-10-17T08:16:41.032Z,97935.00
2022-10-17T08:19:42.698Z,97941.81
2022-10-17T08:22:51.720Z,97940.00
2022-10-17T08:25:53.313Z,97933.84
2022-10-17T08:28:55.111Z,97941.06
2022-10-17T08:32:00.227Z,97939.22
2022-10-17T08:35:03.578Z,97944.44
2022-10-17T08:38:05.180Z,97945.72
2022-10-17T08:41:15.139Z,97948.00
2022-10-17T08:44:46.269Z,97949.66
2022-10-17T08:47:56.632Z,97946.34
2022-10-17T08:51:30.464Z,97952.50
2022-10-17T08:54:49.761Z,97942.81
2022-10-17T08:58:22.294Z,97955.78
2022-10-17T09:01:51.087Z,97945.44
2022-10-17T09:05:26.565Z,97940.22
2022-10-17T09:08:33.884Z,97941.22
2022-10-17T09:11:47.169Z,97945.28
2022-10-17T09:15:11.115Z,97941.75
2022-10-17T09:18:55.212Z,97931.22
2022-10-17T09:22:23.035Z,97945.38
2022-10-17T09:25:35.774Z,97920.94
2022-10-17T09:28:40.449Z,97946.41
2022-10-17T09:31:54.171Z,97932.19
2022-10-17T09:34:58.357Z,97933.13
2022-10-17T09:38:25.109Z,97943.13
2022-10-17T09:41:44.841Z,97950.72
2022-10-17T09:44:57.076Z,97967.66
2022-10-17T09:48:21.521Z,97960.06
2022-10-17T09:51:26.491Z,97951.50
2022-10-17T09:54:40.231Z,97952.25
2022-10-17T09:57:52.470Z,97958.53
2022-10-17T10:01:24.817Z,97977.25
2022-10-17T10:04:30.465Z,97960.38
2022-10-17T10:07:42.043Z,97978.88
2022-10-17T10:10:45.249Z,97965.22
2022-10-17T10:13:49.172Z,97984.81
2022-10-17T10:16:53.530Z,97979.00
2022-10-17T10:19:55.516Z,97989.00
2022-10-17T10:23:19.474Z,97993.81
2022-10-17T10:26:25.772Z,97993.81
2022-10-17T10:29:28.903Z,97989.16
2022-10-17T10:32:36.911Z,97998.22
2022-10-17T10:35:38.685Z,97996.63
2022-10-17T10:38:42.499Z,97999.53
2022-10-17T10:41:50.429Z,98003.06
2022-10-17T10:44:53.937Z,98005.41
2022-10-17T10:47:58.848Z,98019.47
2022-10-17T10:51:16.952Z,98012.53
2022-10-17T10:54:50.731Z,98020.16
2022-10-17T10:57:56.531Z,98016.03
2022-10-17T11:01:05.090Z,98029.28
2022-10-17T11:04:33.157Z,98032.56
2022-10-17T11:07:40.441Z,98036.91
2022-10-17T11:11:04.899Z,98051.66
2022-10-17T11:14:21.203Z,98045.81
2022-10-17T11:17:29.507Z,98044.16
2022-10-17T11:20:58.036Z,98038.31
2022-10-17T11:24:19.308Z,98032.44
2022-10-17T11:27:20.780Z,98046.91
2022-10-17T11:30:26.817Z,98043.63
2022-10-17T11:33:45.943Z,98033.28
2022-10-17T11:36:52.743Z,98053.91
2022-10-17T11:39:59.916Z,98060.38
2022-10-17T11:43:37.727Z,98049.38
2022-10-17T11:46:42.456Z,98060.84
2022-10-17T11:51:59.791Z,98062.59
2022-10-17T11:53:27.341Z,98060.81
2022-10-17T11:56:46.596Z,98062.94
2022-10-17T11:59:59.769Z,98058.94
2022-10-17T12:03:18.895Z,98056.13
2022-10-17T12:06:35.367Z,98053.53
2022-10-17T12:10:02.500Z,98040.16
2022-10-17T12:13:28.592Z,98043.44
2022-10-17T12:16:30.056Z,98037.81
2022-10-17T12:19:40.530Z,98035.53
2022-10-17T12:22:49.268Z,98035.78
2022-10-17T12:25:53.699Z,98030.97
2022-10-17T12:28:57.331Z,98016.91
2022-10-17T12:32:12.119Z,98027.97
2022-10-17T12:35:21.187Z,98034.41
2022-10-17T12:38:27.654Z,98026.66
2022-10-17T12:41:38.265Z,98025.00
2022-10-17T12:44:42.377Z,98019.94
2022-10-17T12:47:43.850Z,98019.47
2022-10-17T12:54:47.056Z,98019.06
2022-10-17T12:58:11.735Z,98021.78
2022-10-17T13:01:24.091Z,98027.84
2022-10-17T13:04:28.009Z,98024.81
2022-10-17T13:07:29.994Z,98020.47
2022-10-17T13:10:35.437Z,98019.06
2022-10-17T13:13:43.262Z,98015.91
2022-10-17T13:16:58.455Z,98018.44
2022-10-17T13:20:00.593Z,98013.13
2022-10-17T13:23:02.275Z,98013.31
2022-10-17T13:26:15.225Z,98019.69
2022-10-17T13:29:16.814Z,98013.97
2022-10-17T13:32:18.284Z,98012.88
2022-10-17T13:35:41.998Z,98011.81
2022-10-17T13:38:49.261Z,98015.00
2022-10-17T13:41:53.961Z,98008.88
2022-10-17T13:44:57.097Z,98014.13
2022-10-17T13:48:03.141Z,98014.44
2022-10-17T13:51:10.346Z,98007.91
2022-10-17T13:54:40.110Z,98004.00
2022-10-17T13:57:41.664Z,98004.63
2022-10-17T14:00:44.905Z,98013.81
2022-10-17T14:03:49.001Z,98008.22
2022-10-17T14:06:52.770Z,98007.19
2022-10-17T14:09:54.341Z,98005.13
2022-10-17T14:12:56.899Z,97995.53
2022-10-17T14:16:01.502Z,98008.31
2022-10-17T14:19:04.253Z,97999.97
2022-10-17T14:22:22.531Z,97995.47
2022-10-17T14:25:27.077Z,97998.81
2022-10-17T14:28:29.044Z,97994.47
2022-10-17T14:31:35.575Z,97998.72
2022-10-17T14:34:40.596Z,97997.47
2022-10-17T14:37:48.740Z,98009.69
2022-10-17T14:40:52.521Z,98007.16
2022-10-17T14:44:03.520Z,98010.50
2022-10-17T14:47:38.041Z,98014.09
2022-10-17T14:50:32.177Z,98011.19
2022-10-17T14:53:33.872Z,98007.06
2022-10-17T14:56:41.473Z,98014.78
2022-10-17T14:59:53.832Z,98009.72
2022-10-17T15:02:56.422Z,98009.88
2022-10-17T15:05:58.444Z,98011.34
2022-10-17T15:09:00.669Z,98017.16
2022-10-17T15:12:04.137Z,98015.03
2022-10-17T15:15:06.156Z,98018.06
2022-10-17T15:18:11.061Z,98007.91
2022-10-17T15:21:33.272Z,98008.81
2022-10-17T15:24:35.205Z,98013.06
2022-10-17T15:27:36.936Z,98011.06
2022-10-17T15:30:53.425Z,98006.34
2022-10-17T15:33:55.826Z,98008.56
2022-10-17T15:36:58.597Z,98007.97
2022-10-17T15:40:00.396Z,98016.75
2022-10-17T15:43:01.874Z,98017.31
2022-10-17T15:46:03.831Z,98015.69
2022-10-17T15:49:09.838Z,98019.91
2022-10-17T15:52:11.405Z,98009.78
2022-10-17T15:55:13.202Z,98018.16
2022-10-17T15:58:19.232Z,98011.59
2022-10-17T16:01:26.310Z,98029.63
2022-10-17T16:04:29.245Z,98031.06
2022-10-17T16:07:30.930Z,98023.34
2022-10-17T16:10:33.538Z,98031.75
2022-10-17T16:13:34.998Z,98040.72
2022-10-17T16:16:44.035Z,98032.50
2022-10-17T16:19:45.815Z,98035.56
2022-10-17T16:22:48.617Z,98044.03
2022-10-17T16:25:50.185Z,98032.25
2022-10-17T16:28:51.730Z,98040.47
2022-10-17T16:31:53.272Z,98049.69
2022-10-17T16:34:54.837Z,98052.25
2022-10-17T16:37:57.780Z,98041.84
2022-10-17T16:40:59.232Z,98046.19
2022-10-17T16:44:03.925Z,98043.78
2022-10-17T16:47:05.375Z,98050.22
2022-10-17T16:50:07.326Z,98054.38
2022-10-17T16:53:08.812Z,98053.78
2022-10-17T16:56:13.004Z,98060.78
2022-10-17T16:59:14.456Z,98066.59
2022-10-17T17:02:18.911Z,98067.81
2022-10-17T17:05:22.985Z,98073.53
2022-10-17T17:08:24.487Z,98078.50
2022-10-17T17:11:27.621Z,98087.13
2022-10-17T17:14:29.067Z,98091.66
2022-10-17T17:17:48.118Z,98083.38
2022-10-17T17:20:50.901Z,98104.97
2022-10-17T17:23:52.696Z,98100.22
2022-10-17T17:26:55.628Z,98102.66
2022-10-17T17:29:57.151Z,98104.66
2022-10-17T17:32:59.977Z,98112.44
2022-10-17T17:36:02.015Z,98120.19
2022-10-17T17:39:07.587Z,98113.56
2022-10-17T17:42:09.158Z,98124.00
2022-10-17T17:45:16.841Z,98115.50
2022-10-17T17:48:42.453Z,98108.84
2022-10-17T17:51:46.551Z,98122.63
2022-10-17T17:54:48.142Z,98119.28
2022-10-17T17:57:49.853Z,98120.91
2022-10-17T18:00:51.468Z,98130.50
2022-10-17T18:03:56.624Z,98143.84
2022-10-17T18:06:58.090Z,98144.94
2022-10-17T18:09:59.845Z,98144.22
2022-10-17T18:13:01.449Z,98145.91
2022-10-17T18:16:04.187Z,98134.91
2022-10-17T18:19:08.794Z,98153.38
2022-10-17T18:22:10.672Z,98133.78
2022-10-17T18:25:12.127Z,98155.06
2022-10-17T18:28:13.612Z,98153.78
2022-10-17T18:31:24.311Z,98150.44
2022-10-17T18:34:27.217Z,98146.34
2022-10-17T18:37:28.679Z,98157.38
2022-10-17T18:40:30.219Z,98158.78
2022-10-17T18:43:36.686Z,98150.50
2022-10-17T18:46:42.737Z,98163.94
2022-10-17T18:49:44.325Z,98162.47
2022-10-17T18:52:47.827Z,98154.03
2022-10-17T18:55:51.221Z,98158.72
2022-10-17T18:58:53.536Z,98156.41
2022-10-17T19:01:55.357Z,98153.66
2022-10-17T19:04:57.128Z,98154.31
2022-10-17T19:07:58.668Z,98158.84
2022-10-17T19:11:15.132Z,98148.75
2022-10-17T19:14:16.851Z,98138.84
2022-10-17T19:17:19.315Z,98150.13
2022-10-17T19:20:20.828Z,98151.06
2022-10-17T19:23:22.340Z,98151.06
2022-10-17T19:26:24.896Z,98158.63
2022-10-17T19:29:28.152Z,98154.41
2022-10-17T19:32:31.081Z,98169.91
2022-10-17T19:35:33.918Z,98168.34
2022-10-17T19:38:48.965Z,98165.41
2022-10-17T19:41:53.683Z,98159.72
2022-10-17T19:44:55.133Z,98170.00
2022-10-17T19:47:56.644Z,98170.53
2022-10-17T19:50:58.551Z,98162.63
2022-10-17T19:54:01.198Z,98170.69
2022-10-17T19:57:06.778Z,98174.72
2022-10-17T20:00:11.637Z,98172.88
2022-10-17T20:03:13.138Z,98172.53
2022-10-17T20:06:15.461Z,98170.59
2022-10-17T20:09:17.326Z,98179.47
2022-10-17T20:12:19.206Z,98171.03
2022-10-17T20:15:20.681Z,98180.00
2022-10-17T20:18:22.721Z,98170.72
2022-10-17T20:21:27.358Z,98173.72
2022-10-17T20:24:28.908Z,98172.75
2022-10-17T20:27:30.429Z,98177.03
2022-10-17T20:30:31.955Z,98169.44
2022-10-17T20:33:33.438Z,98165.09
2022-10-17T20:36:37.421Z,98175.44
2022-10-17T20:39:39.159Z,98185.28
2022-10-17T20:42:40.629Z,98189.78
2022-10-17T20:45:50.839Z,98195.59
2022-10-17T20:48:54.714Z,98200.16
2022-10-17T20:51:56.250Z,98204.00
2022-10-17T20:54:57.736Z,98196.72
2022-10-17T20:57:59.556Z,98199.88
2022-10-17T21:01:06.402Z,98212.22
2022-10-17T21:04:40.308Z,98201.03
2022-10-17T21:07:30.265Z,98199.03
2022-10-17T21:10:35.415Z,98198.69
2022-10-17T21:13:37.917Z,98200.03
2022-10-17T21:16:41.231Z,98196.59
2022-10-17T21:19:42.708Z,98203.06
2022-10-17T21:22:44.277Z,98206.41
2022-10-17T21:25:45.754Z,98214.91
2022-10-17T21:28:48.593Z,98208.13
2022-10-17T21:31:50.409Z,98207.81
2022-10-17T21:34:51.930Z,98215.72
2022-10-17T21:37:53.409Z,98209.88
2022-10-17T21:40:56.081Z,98209.72
2022-10-17T21:44:01.202Z,98208.88
2022-10-17T21:47:02.853Z,98211.03
2022-10-17T21:50:04.647Z,98202.97
2022-10-17T21:53:08.871Z,98208.44
2022-10-17T21:56:13.017Z,98198.28
2022-10-17T21:59:14.932Z,98197.06
2022-10-17T22:02:16.496Z,98202.59
2022-10-17T22:05:18.048Z,98202.28
2022-10-17T22:08:19.620Z,98195.94
2022-10-17T22:11:24.041Z,98194.72
2022-10-17T22:14:27.061Z,98196.13
2022-10-17T22:17:28.767Z,98198.75
2022-10-17T22:20:30.517Z,98187.91
2022-10-17T22:23:32.384Z,98193.44
2022-10-17T22:26:35.817Z,98191.41
2022-10-17T22:29:37.408Z,98189.41
2022-10-17T22:32:38.960Z,98188.09
2022-10-17T22:35:42.136Z,98183.84
2022-10-17T22:38:43.633Z,98188.22
2022-10-17T22:41:45.196Z,98187.38
2022-10-17T22:44:47.769Z,98189.22
2022-10-17T22:47:49.316Z,98184.44
2022-10-17T22:50:52.440Z,98180.94
2022-10-17T22:53:53.920Z,98173.44
2022-10-17T22:56:55.371Z,98169.97
2022-10-17T22:59:56.857Z,98180.06
2022-10-17T23:02:58.369Z,98174.75
2022-10-17T23:06:00.691Z,98172.00
2022-10-17T23:09:02.488Z,98162.50
2022-10-17T23:12:04.488Z,98164.41
2022-10-17T23:15:06.427Z,98151.84
2022-10-17T23:18:09.658Z,98143.13
2022-10-17T23:21:11.861Z,98160.88
2022-10-17T23:24:13.361Z,98158.69
2022-10-17T23:27:14.844Z,98150.69
2022-10-17T23:30:16.703Z,98158.03
2022-10-17T23:33:18.213Z,98151.69
2022-10-17T23:36:21.165Z,98146.19
2022-10-17T23:39:22.853Z,98144.19
2022-10-17T23:42:24.440Z,98143.66
2022-10-17T23:45:26.024Z,98131.63
2022-10-17T23:48:28.135Z,98140.53
2022-10-17T23:51:29.760Z,98144.66
2022-10-17T23:54:31.727Z,98134.19
2022-10-17T23:57:33.698Z,98135.28
